Time;durP1;ratioP1;P1;durP2;ratioP2;P2;SDS_P1;SDS_P2;PMS_P1;PMS_P2;Temp;Humidity;BMP_temperature;BMP_pressure;BME280_temperature;BME280_humidity;BME280_pressure;Samples;Min_cycle;Max_cycle;Signal;HPM_P1;HPM_P2
2023/03/25 00:00:24;;;;;;;2.83;0.91;;;8.10;99.90;;;;;;4999052;28;10000840;-70
2023/03/25 00:02:58;;;;;;;4.05;0.70;;;8.10;99.90;;;;;;4670317;28;9999843;-71
2023/03/25 00:05:36;;;;;;;2.05;0.85;;;8.10;99.90;;;;;;5029046;28;20033;-71
2023/03/25 00:08:11;;;;;;;2.55;0.88;;;8.10;99.90;;;;;;5031039;28;20034;-71
2023/03/25 00:10:45;;;;;;;2.20;0.60;;;8.00;99.90;;;;;;5030780;28;20116;-72
2023/03/25 00:13:23;;;;;;;3.13;0.80;;;8.00;99.90;;;;;;5028218;28;20021;-71
2023/03/25 00:16:00;;;;;;;3.58;1.00;;;8.00;99.90;;;;;;5030342;28;20053;-71
2023/03/25 00:18:36;;;;;;;3.03;0.90;;;8.00;99.90;;;;;;5026647;28;20041;-71
2023/03/25 00:21:12;;;;;;;2.30;0.90;;;8.10;99.90;;;;;;5011722;28;20475;-71
2023/03/25 00:23:40;;;;;;;3.45;0.80;;;8.10;99.90;;;;;;5011055;28;20530;-71
2023/03/25 00:26:15;;;;;;;3.63;0.95;;;8.10;99.90;;;;;;5026136;28;20033;-71
2023/03/25 00:28:41;;;;;;;3.80;0.95;;;8.10;99.90;;;;;;5027967;28;20167;-71
2023/03/25 00:31:18;;;;;;;2.47;0.70;;;8.10;99.90;;;;;;5011258;28;20042;-70
2023/03/25 00:33:46;;;;;;;2.33;1.13;;;8.10;99.90;;;;;;5026940;28;20518;-71
2023/03/25 00:36:20;;;;;;;4.47;0.80;;;8.10;99.90;;;;;;5017271;28;20037;-71
2023/03/25 00:38:50;;;;;;;2.13;0.90;;;8.10;99.90;;;;;;5029646;28;20497;-71
2023/03/25 00:41:29;;;;;;;2.65;0.73;;;8.10;99.90;;;;;;5030564;28;20029;-71
2023/03/25 00:43:57;;;;;;;3.25;0.98;;;8.10;99.90;;;;;;5027759;28;20037;-71
2023/03/25 00:46:32;;;;;;;2.90;0.90;;;8.10;99.90;;;;;;5028023;28;20138;-70
2023/03/25 00:49:11;;;;;;;2.75;0.77;;;8.10;99.90;;;;;;5013674;28;20045;-71
2023/03/25 00:51:46;;;;;;;1.40;0.68;;;8.10;99.90;;;;;;5012380;28;20489;-71
2023/03/25 00:54:17;;;;;;;3.63;1.17;;;8.10;99.90;;;;;;5013774;28;20037;-71
2023/03/25 00:56:52;;;;;;;3.65;0.80;;;8.10;99.90;;;;;;5028959;28;20500;-71
2023/03/25 00:59:29;;;;;;;3.28;0.85;;;8.20;99.90;;;;;;5029573;28;20038;-71
2023/03/25 01:02:05;;;;;;;3.70;0.70;;;8.20;99.90;;;;;;5028526;28;20033;-71
2023/03/25 01:04:44;;;;;;;2.63;0.80;;;8.20;99.90;;;;;;5030510;28;20550;-71
2023/03/25 01:07:14;;;;;;;2.85;0.95;;;8.20;99.90;;;;;;5027117;28;20041;-71
2023/03/25 01:09:53;;;;;;;3.20;0.80;;;8.20;99.90;;;;;;5023307;28;20025;-71
2023/03/25 01:12:26;;;;;;;1.05;0.60;;;8.20;99.90;;;;;;5016500;28;20029;-71
2023/03/25 01:15:01;;;;;;;2.28;0.70;;;8.20;99.90;;;;;;5027678;28;20104;-71
2023/03/25 01:17:33;;;;;;;4.15;0.70;;;8.30;99.90;;;;;;5026961;28;20038;-71
2023/03/25 01:20:12;;;;;;;3.20;0.95;;;8.20;99.90;;;;;;5029442;28;20451;-71
2023/03/25 01:22:40;;;;;;;2.63;0.60;;;8.30;99.90;;;;;;5026959;28;20037;-71
2023/03/25 01:25:14;;;;;;;2.80;0.70;;;8.20;99.90;;;;;;5014852;28;20057;-71
2023/03/25 01:27:48;;;;;;;2.95;0.82;;;8.30;99.90;;;;;;5014003;28;20044;-71
2023/03/25 01:30:26;;;;;;;1.88;0.70;;;8.30;99.90;;;;;;5024889;28;20017;-71
2023/03/25 01:32:58;;;;;;;0.82;0.52;;;8.30;99.90;;;;;;5020381;28;20034;-71
2023/03/25 01:35:32;;;;;;;2.15;1.00;;;8.30;99.90;;;;;;5018153;28;20038;-71
2023/03/25 01:38:07;;;;;;;1.75;0.70;;;8.30;99.90;;;;;;5026748;28;20120;-71
2023/03/25 01:40:40;;;;;;;2.60;0.70;;;8.30;99.90;;;;;;5023819;28;20030;-71
2023/03/25 01:43:14;;;;;;;1.75;0.70;;;8.20;99.90;;;;;;5019931;28;20068;-71
2023/03/25 01:45:49;;;;;;;1.50;0.70;;;8.20;99.90;;;;;;5029452;28;20038;-71
2023/03/25 01:48:39;;;;;;;2.72;0.80;;;8.20;99.90;;;;;;5018190;28;20130;-71
2023/03/25 01:51:28;;;;;;;1.25;0.60;;;8.30;99.90;;;;;;5025776;28;20034;-71
2023/03/25 01:54:04;;;;;;;1.60;0.80;;;8.20;99.90;;;;;;5011863;28;20465;-71
2023/03/25 01:56:43;;;;;;;1.80;0.70;;;8.30;99.90;;;;;;5011826;28;20487;-71
2023/03/25 01:59:17;;;;;;;2.20;0.60;;;8.20;99.90;;;;;;5026347;28;20072;-71
2023/03/25 02:01:50;;;;;;;0.98;0.60;;;8.20;99.90;;;;;;5029003;28;20036;-71
2023/03/25 02:04:26;;;;;;;2.47;1.00;;;8.20;99.90;;;;;;5020897;28;20042;-71
2023/03/25 02:06:58;;;;;;;1.60;0.60;;;8.20;99.90;;;;;;5025340;28;20545;-71
2023/03/25 02:09:25;;;;;;;2.38;0.57;;;8.20;99.90;;;;;;5024004;28;20034;-71
2023/03/25 02:11:57;;;;;;;3.25;0.80;;;8.20;99.90;;;;;;5028869;28;20084;-71
2023/03/25 02:14:33;;;;;;;1.52;0.70;;;8.20;99.90;;;;;;5028696;28;20029;-71
2023/03/25 02:17:24;;;;;;;2.92;0.80;;;8.20;99.90;;;;;;5017883;28;20038;-71
2023/03/25 02:20:23;;;;;;;3.15;0.80;;;8.20;99.90;;;;;;5023511;28;20037;-71
2023/03/25 02:23:31;;;;;;;3.72;0.80;;;8.10;99.90;;;;;;5005364;28;20057;-70
2023/03/25 02:26:23;;;;;;;4.07;0.70;;;8.00;99.90;;;;;;5023794;28;20084;-71
2023/03/25 02:29:00;;;;;;;1.48;0.60;;;8.10;99.90;;;;;;5026056;28;20029;-71
2023/03/25 02:32:10;;;;;;;1.02;0.60;;;8.00;99.90;;;;;;5022080;28;20079;-71
2023/03/25 02:35:15;;;;;;;3.47;0.60;;;8.00;99.90;;;;;;5013501;28;20062;-71
2023/03/25 02:38:06;;;;;;;2.72;0.65;;;8.00;99.90;;;;;;5028859;28;20029;-71
2023/03/25 02:40:59;;;;;;;2.28;0.80;;;8.00;99.90;;;;;;5024547;28;20120;-71
2023/03/25 02:44:10;;;;;;;3.17;0.65;;;8.00;99.90;;;;;;5027734;28;20045;-71
2023/03/25 02:46:46;;;;;;;1.35;0.68;;;8.00;99.90;;;;;;4997582;28;20494;-71
2023/03/25 02:49:34;;;;;;;3.08;0.70;;;8.00;99.90;;;;;;5026656;28;20045;-71
2023/03/25 02:52:22;;;;;;;0.60;0.60;;;8.00;99.90;;;;;;5016194;28;20026;-71
2023/03/25 02:55:02;;;;;;;1.75;0.60;;;8.00;99.90;;;;;;5025013;28;20049;-71
2023/03/25 02:57:40;;;;;;;3.70;0.80;;;8.00;99.90;;;;;;5015386;28;20033;-71
2023/03/25 03:00:17;;;;;;;2.42;0.65;;;8.00;99.90;;;;;;5021267;28;20125;-71
2023/03/25 03:03:03;;;;;;;4.85;0.65;;;8.00;99.90;;;;;;5009123;28;20046;-71
2023/03/25 03:05:40;;;;;;;3.03;0.70;;;7.90;99.90;;;;;;5014378;28;20038;-71
2023/03/25 03:08:33;;;;;;;2.08;0.60;;;8.00;99.90;;;;;;5025225;28;20402;-71
2023/03/25 03:11:18;;;;;;;3.03;0.63;;;7.90;99.90;;;;;;5026536;28;20474;-71
2023/03/25 03:14:20;;;;;;;4.03;0.77;;;8.00;99.90;;;;;;5014347;28;20382;-71
2023/03/25 03:17:18;;;;;;;3.60;0.70;;;7.90;99.90;;;;;;5020435;28;20434;-71
2023/03/25 03:20:07;;;;;;;2.22;0.70;;;7.90;99.90;;;;;;5020381;28;20025;-71
2023/03/25 03:22:51;;;;;;;3.78;0.60;;;7.90;99.90;;;;;;5022149;28;20045;-71
2023/03/25 03:25:25;;;;;;;2.33;0.60;;;7.80;99.90;;;;;;5018125;28;20048;-70
2023/03/25 03:28:06;;;;;;;2.78;0.70;;;7.80;99.90;;;;;;5030522;28;20060;-71
2023/03/25 03:30:54;;;;;;;3.58;0.70;;;7.80;99.90;;;;;;5027399;28;20025;-70
2023/03/25 03:33:57;;;;;;;3.08;0.80;;;7.80;99.90;;;;;;5026578;28;20495;-71
2023/03/25 03:36:37;;;;;;;1.73;0.63;;;7.70;99.90;;;;;;5011513;28;20523;-71
2023/03/25 03:39:27;;;;;;;2.67;1.00;;;7.70;99.90;;;;;;5031155;28;21078;-71
2023/03/25 03:42:09;;;;;;;2.55;0.90;;;7.70;99.90;;;;;;5029873;28;20120;-71
2023/03/25 03:44:43;;;;;;;4.60;0.73;;;7.70;99.90;;;;;;5031295;28;20115;-71
2023/03/25 03:47:17;;;;;;;5.45;0.82;;;7.70;99.90;;;;;;5027404;28;20046;-71
2023/03/25 03:49:56;;;;;;;3.78;0.90;;;7.60;99.90;;;;;;5023021;28;20402;-71
2023/03/25 03:52:35;;;;;;;4.55;0.88;;;7.70;99.90;;;;;;5024307;28;20026;-71
2023/03/25 03:55:12;;;;;;;3.30;1.02;;;7.60;99.90;;;;;;5011441;28;20113;-71
2023/03/25 03:57:49;;;;;;;3.17;1.00;;;7.60;99.90;;;;;;5027212;28;20506;-71
2023/03/25 04:00:30;;;;;;;3.60;0.90;;;7.60;99.90;;;;;;5027838;28;20037;-71
2023/03/25 04:03:05;;;;;;;3.72;0.80;;;7.50;99.90;;;;;;5021920;28;20030;-71
2023/03/25 04:05:38;;;;;;;3.78;0.95;;;7.50;99.90;;;;;;5019792;28;20531;-71
2023/03/25 04:08:22;;;;;;;2.95;1.00;;;7.50;99.90;;;;;;5030671;28;20044;-72
2023/03/25 04:11:08;;;;;;;2.60;0.85;;;7.50;99.90;;;;;;5028501;28;20033;-71
2023/03/25 04:13:43;;;;;;;3.58;0.90;;;7.50;99.90;;;;;;5017961;28;20032;-71
2023/03/25 04:16:17;;;;;;;3.25;1.00;;;7.50;99.90;;;;;;5030772;28;20033;-71
2023/03/25 04:18:49;;;;;;;4.43;0.90;;;7.50;99.90;;;;;;5030269;28;20490;-71
2023/03/25 04:21:19;;;;;;;2.53;0.70;;;7.50;99.90;;;;;;5028718;28;20112;-71
2023/03/25 04:23:55;;;;;;;3.50;0.80;;;7.50;99.90;;;;;;5017781;28;20085;-70
2023/03/25 04:26:32;;;;;;;6.32;1.05;;;7.50;99.90;;;;;;5011140;28;20114;-71
2023/03/25 04:29:08;;;;;;;2.30;0.80;;;7.50;99.90;;;;;;5010951;28;20494;-71
2023/03/25 04:31:48;;;;;;;3.35;0.90;;;7.50;99.90;;;;;;5022127;28;20684;-71
2023/03/25 04:34:23;;;;;;;2.88;0.70;;;7.50;99.90;;;;;;5029548;28;20658;-71
2023/03/25 04:37:00;;;;;;;3.35;1.20;;;7.50;99.90;;;;;;5030256;28;20021;-71
2023/03/25 04:39:28;;;;;;;3.10;0.90;;;7.50;99.90;;;;;;5018647;28;20052;-71
2023/03/25 04:42:04;;;;;;;4.15;1.00;;;7.50;99.90;;;;;;5029002;28;20516;-71
2023/03/25 04:44:37;;;;;;;1.55;0.90;;;7.40;99.90;;;;;;5019391;28;20033;-71
2023/03/25 04:47:13;;;;;;;5.85;1.05;;;7.40;99.90;;;;;;5013175;28;20533;-71
2023/03/25 04:49:46;;;;;;;3.40;1.17;;;7.40;99.90;;;;;;5023900;28;20554;-71
2023/03/25 04:52:20;;;;;;;2.65;0.95;;;7.40;99.90;;;;;;5019380;28;20120;-71
2023/03/25 04:54:51;;;;;;;;;;;7.40;99.90;;;;;;5031089;28;20033;-71
2023/03/25 04:57:26;;;;;;;2.85;0.93;;;7.40;99.90;;;;;;5030189;28;19943;-71
2023/03/25 05:00:00;;;;;;;5.85;1.20;;;7.40;99.90;;;;;;5030488;28;20034;-71
2023/03/25 05:02:34;;;;;;;5.35;1.08;;;7.30;99.90;;;;;;5015533;28;20423;-72
2023/03/25 05:05:08;;;;;;;2.92;0.90;;;7.30;99.90;;;;;;5028215;28;20506;-72
2023/03/25 05:07:40;;;;;;;5.95;1.23;;;7.40;99.90;;;;;;5015414;28;20033;-72
2023/03/25 05:10:16;;;;;;;3.40;0.90;;;7.30;99.90;;;;;;5025949;28;20132;-71
2023/03/25 05:12:54;;;;;;;6.80;1.23;;;7.30;99.90;;;;;;5018542;28;20025;-71
2023/03/25 05:15:22;;;;;;;3.42;1.38;;;7.30;99.90;;;;;;5028687;28;20116;-71
2023/03/25 05:18:01;;;;;;;2.83;0.80;;;7.30;99.90;;;;;;5028074;28;20041;-72
2023/03/25 05:20:27;;;;;;;3.00;0.63;;;7.20;99.90;;;;;;5021401;28;20573;-72
2023/03/25 05:23:00;;;;;;;2.17;0.52;;;7.00;99.90;;;;;;5027340;28;20060;-71
2023/03/25 05:25:32;;;;;;;2.40;0.40;;;6.80;99.90;;;;;;5026665;28;20207;-71
2023/03/25 05:28:01;;;;;;;1.35;0.50;;;6.70;99.90;;;;;;5007618;28;20038;-71
2023/03/25 05:30:31;;;;;;;1.30;0.20;;;6.50;99.90;;;;;;5017093;28;20033;-71
2023/03/25 05:33:00;;;;;;;0.90;0.20;;;6.40;99.90;;;;;;5011098;28;20026;-71
2023/03/25 05:35:26;;;;;;;1.90;0.30;;;6.30;99.90;;;;;;5018269;28;20295;-71
2023/03/25 05:37:55;;;;;;;1.83;0.20;;;6.20;99.90;;;;;;5024431;28;20087;-71
2023/03/25 05:40:22;;;;;;;0.77;0.30;;;6.20;99.90;;;;;;5027463;28;20040;-71
2023/03/25 05:42:53;;;;;;;0.55;0.40;;;6.20;99.90;;;;;;5022731;28;20030;-71
2023/03/25 05:45:21;;;;;;;1.15;0.40;;;6.20;99.90;;;;;;5010896;28;20025;-71
2023/03/25 05:47:48;;;;;;;0.25;0.22;;;6.20;99.90;;;;;;5014111;28;20060;-68
2023/03/25 05:50:15;;;;;;;2.22;0.30;;;6.10;99.90;;;;;;5014354;28;20022;-71
2023/03/25 05:52:44;;;;;;;0.52;0.30;;;;;;;;;;5019605;28;20048;-68
2023/03/25 05:55:20;;;;;;;1.20;0.40;;;6.20;99.90;;;;;;5024083;28;20151;-71
2023/03/25 05:57:48;;;;;;;1.48;0.60;;;6.20;99.90;;;;;;5018287;28;20584;-71
2023/03/25 06:00:18;;;;;;;2.60;0.57;;;6.30;99.90;;;;;;5033294;28;20098;-71
2023/03/25 06:02:50;;;;;;;0.88;0.40;;;6.30;99.90;;;;;;5023207;28;20118;-71
2023/03/25 06:05:17;;;;;;;3.40;0.50;;;6.30;99.90;;;;;;5020118;28;20041;-70
2023/03/25 06:07:46;;;;;;;1.60;0.70;;;6.30;99.90;;;;;;5021095;28;20084;-71
2023/03/25 06:10:16;;;;;;;3.00;0.98;;;6.40;99.90;;;;;;5017813;28;20044;-71
2023/03/25 06:12:44;;;;;;;1.38;0.82;;;6.40;99.90;;;;;;5027240;28;20029;-72
2023/03/25 06:15:12;;;;;;;1.08;0.73;;;6.50;99.90;;;;;;5028565;28;20056;-71
2023/03/25 06:17:39;;;;;;;3.92;0.75;;;6.60;99.90;;;;;;5021527;28;20083;-71
2023/03/25 06:20:11;;;;;;;3.67;0.60;;;6.60;99.90;;;;;;5024423;28;20079;-71
2023/03/25 06:22:41;;;;;;;5.10;0.87;;;6.70;99.90;;;;;;5018310;28;20025;-71
2023/03/25 06:25:10;;;;;;;1.20;0.70;;;6.70;99.90;;;;;;5025432;28;20366;-71
2023/03/25 06:27:40;;;;;;;1.13;0.70;;;6.70;99.90;;;;;;5025143;28;20485;-71
2023/03/25 06:30:20;;;;;;;4.95;0.70;;;6.70;99.90;;;;;;5023706;28;20486;-71
2023/03/25 06:32:50;;;;;;;2.22;0.50;;;6.80;99.90;;;;;;5019290;28;20461;-71
2023/03/25 06:35:20;;;;;;;2.70;0.68;;;6.80;99.90;;;;;;5011349;28;20026;-71
2023/03/25 06:37:48;;;;;;;2.10;0.70;;;6.90;99.90;;;;;;5024907;28;20525;-70
2023/03/25 06:40:15;;;;;;;1.67;0.50;;;6.90;99.90;;;;;;5012591;28;20108;-71
2023/03/25 06:42:41;;;;;;;2.13;0.80;;;6.90;99.90;;;;;;5028829;28;20064;-71
2023/03/25 06:45:07;;;;;;;3.35;0.90;;;6.90;99.90;;;;;;5026563;28;20029;-71
2023/03/25 06:47:33;;;;;;;2.08;0.90;;;7.10;99.90;;;;;;5025158;28;20578;-71
2023/03/25 06:49:59;;;;;;;2.95;1.08;;;7.20;99.90;;;;;;5016174;28;20140;-70
2023/03/25 06:52:29;;;;;;;7.25;1.25;;;7.20;99.90;;;;;;5026462;28;20018;-71
2023/03/25 06:55:01;;;;;;;4.03;1.10;;;7.30;99.90;;;;;;5027515;28;20024;-71
2023/03/25 06:57:29;;;;;;;3.80;1.30;;;7.40;99.90;;;;;;5019508;28;20025;-70
2023/03/25 06:59:56;;;;;;;5.82;1.33;;;7.40;99.90;;;;;;5029760;28;20037;-71
2023/03/25 07:02:23;;;;;;;5.05;1.50;;;7.50;99.90;;;;;;5021201;28;20490;-71
2023/03/25 07:04:50;;;;;;;2.13;0.95;;;7.40;99.90;;;;;;5027791;28;20030;-71
2023/03/25 07:07:18;;;;;;;2.88;1.00;;;7.50;99.90;;;;;;5020342;28;20062;-71
2023/03/25 07:09:56;;;;;;;3.55;1.30;;;7.50;99.90;;;;;;5027496;28;20467;-70
2023/03/25 07:12:30;;;;;;;5.88;1.23;;;7.50;99.90;;;;;;5019914;28;20403;-70
2023/03/25 07:15:04;;;;;;;4.00;1.25;;;7.50;99.90;;;;;;5016897;28;20034;-69
2023/03/25 07:17:38;;;;;;;5.75;1.50;;;7.50;99.90;;;;;;5016703;28;20029;-70
2023/03/25 07:20:13;;;;;;;4.40;1.40;;;7.50;99.90;;;;;;5028069;28;20045;-70
2023/03/25 07:22:46;;;;;;;6.75;1.60;;;7.60;99.90;;;;;;5030192;28;20037;-70
2023/03/25 07:25:20;;;;;;;2.83;1.40;;;7.50;99.90;;;;;;5011417;28;20056;-70
2023/03/25 07:27:53;;;;;;;7.20;1.70;;;7.60;99.90;;;;;;5028014;28;20073;-69
2023/03/25 07:30:19;;;;;;;6.05;1.17;;;7.60;99.90;;;;;;5028127;28;20057;-70
2023/03/25 07:32:57;;;;;;;6.25;1.30;;;7.70;99.90;;;;;;5018577;28;20053;-70
2023/03/25 07:35:30;;;;;;;3.80;1.08;;;7.70;99.90;;;;;;5030265;28;20147;-70
2023/03/25 07:38:02;;;;;;;2.95;0.85;;;7.80;99.90;;;;;;5024196;28;20493;-70
2023/03/25 07:40:36;;;;;;;4.20;1.10;;;7.80;99.90;;;;;;5028963;28;20030;-70
2023/03/25 07:43:13;;;;;;;5.47;1.08;;;7.80;99.90;;;;;;5031097;28;20030;-70
2023/03/25 07:45:48;;;;;;;5.22;1.98;;;7.80;99.90;;;;;;5031164;28;20096;-70
2023/03/25 07:48:21;;;;;;;1.77;1.00;;;7.80;99.90;;;;;;5025780;28;20049;-70
2023/03/25 07:50:56;;;;;;;5.40;2.75;;;7.90;99.90;;;;;;5022744;28;20034;-70
2023/03/25 07:53:28;;;;;;;10.85;3.95;;;7.90;99.90;;;;;;5011157;28;20569;-70
2023/03/25 07:56:01;;;;;;;5.13;1.38;;;7.90;99.90;;;;;;5028448;28;20037;-69
2023/03/25 07:58:34;;;;;;;5.90;1.10;;;7.90;99.90;;;;;;5030640;28;20129;-70
2023/03/25 08:01:09;;;;;;;4.60;1.60;;;7.90;99.90;;;;;;5026760;28;20040;-70
2023/03/25 08:03:40;;;;;;;5.65;1.20;;;8.00;99.90;;;;;;5019474;28;20037;-70
2023/03/25 08:06:13;;;;;;;4.80;1.17;;;8.00;99.90;;;;;;5025791;28;20114;-70
2023/03/25 08:08:45;;;;;;;7.03;1.88;;;8.00;99.90;;;;;;5029008;28;20052;-70
2023/03/25 08:11:20;;;;;;;2.97;1.00;;;8.10;99.90;;;;;;5024782;28;20033;-70
2023/03/25 08:13:54;;;;;;;8.90;3.90;;;8.10;99.90;;;;;;5028407;28;20383;-70
2023/03/25 08:16:27;;;;;;;5.20;1.60;;;8.20;99.90;;;;;;5011134;28;20053;-70
2023/03/25 08:19:01;;;;;;;7.88;3.65;;;8.10;99.90;;;;;;5018255;28;20028;-70
2023/03/25 08:21:28;;;;;;;5.63;1.90;;;8.20;99.90;;;;;;5027022;28;20044;-70
2023/03/25 08:24:06;;;;;;;8.02;3.40;;;8.20;99.90;;;;;;5029825;28;20494;-70
2023/03/25 08:26:33;;;;;;;4.32;1.15;;;8.20;99.90;;;;;;5025098;28;20410;-70
2023/03/25 08:29:09;;;;;;;5.68;1.40;;;8.30;99.90;;;;;;5030340;28;20099;-70
2023/03/25 08:31:37;;;;;;;6.85;1.92;;;8.40;99.90;;;;;;5010126;28;20026;-70
2023/03/25 08:34:16;;;;;;;7.85;4.40;;;8.50;99.90;;;;;;5014312;28;20022;-70
2023/03/25 08:36:44;;;;;;;9.07;2.40;;;8.50;99.90;;;;;;5027358;28;20147;-70
2023/03/25 08:39:20;;;;;;;6.47;1.83;;;8.60;99.90;;;;;;5026254;28;20049;-70
2023/03/25 08:41:50;;;;;;;13.20;7.22;;;8.70;99.90;;;;;;5029664;28;20485;-70
2023/03/25 08:44:23;;;;;;;14.98;8.23;;;8.80;99.90;;;;;;5027035;28;20137;-70
2023/03/25 08:46:57;;;;;;;3.35;0.98;;;8.90;99.90;;;;;;5029749;28;20422;-70
2023/03/25 08:49:26;;;;;;;5.32;3.17;;;8.80;99.90;;;;;;5022241;28;20044;-70
2023/03/25 08:51:59;;;;;;;4.93;1.80;;;8.90;99.90;;;;;;5030045;28;20079;-71
2023/03/25 08:54:30;;;;;;;6.80;2.35;;;8.90;99.90;;;;;;5026483;28;20190;-70
2023/03/25 08:57:04;;;;;;;3.38;1.10;;;8.90;99.90;;;;;;5019735;28;20121;-70
2023/03/25 08:59:43;;;;;;;7.45;2.55;;;9.00;99.90;;;;;;5026972;28;20049;-70
2023/03/25 09:02:11;;;;;;;5.53;1.65;;;9.10;99.90;;;;;;5024387;28;20164;-70
2023/03/25 09:04:38;;;;;;;4.68;2.08;;;9.10;99.90;;;;;;5025829;28;20095;-70
2023/03/25 09:07:06;;;;;;;3.28;1.77;;;9.30;99.90;;;;;;5020099;28;20526;-70
2023/03/25 09:09:32;;;;;;;5.50;1.92;;;9.50;99.90;;;;;;5024325;28;20033;-70
2023/03/25 09:11:58;;;;;;;3.70;1.80;;;9.60;99.90;;;;;;5024413;28;20037;-70
2023/03/25 09:14:32;;;;;;;3.33;0.65;;;9.60;99.90;;;;;;5023162;28;20029;-70
2023/03/25 09:17:01;;;;;;;2.08;0.60;;;9.70;99.90;;;;;;5010173;28;20318;-70
2023/03/25 09:19:39;;;;;;;6.10;1.10;;;9.70;99.90;;;;;;5018409;28;20037;-70
2023/03/25 09:22:14;;;;;;;2.38;1.08;;;9.60;99.90;;;;;;5026250;28;20065;-70
2023/03/25 09:24:47;;;;;;;2.67;0.90;;;9.50;99.90;;;;;;5019775;28;20052;-71
2023/03/25 09:27:20;;;;;;;5.18;0.80;;;9.50;99.90;;;;;;5010642;28;20026;-70
2023/03/25 09:29:54;;;;;;;3.38;0.95;;;;;;;;;;5021407;28;20037;-70
2023/03/25 09:32:27;;;;;;;4.45;0.80;;;9.40;99.90;;;;;;5029360;28;20025;-70
2023/03/25 09:35:01;;;;;;;2.58;0.90;;;9.50;99.90;;;;;;5020394;28;20041;-70
2023/03/25 09:37:36;;;;;;;2.25;0.90;;;9.40;99.90;;;;;;5023422;28;20478;-70
2023/03/25 09:40:13;;;;;;;2.33;0.95;;;9.40;99.90;;;;;;5028032;28;20065;-70
2023/03/25 09:43:07;;;;;;;3.50;1.13;;;9.30;99.90;;;;;;5022296;28;20334;-70
2023/03/25 09:45:47;;;;;;;2.80;0.68;;;9.40;99.90;;;;;;5011844;28;20057;-70
2023/03/25 09:48:31;;;;;;;1.85;0.55;;;9.50;99.90;;;;;;5026432;28;20128;-70
2023/03/25 09:51:29;;;;;;;3.03;0.70;;;9.50;99.90;;;;;;5019527;28;20107;-70
2023/03/25 09:54:21;;;;;;;4.05;0.90;;;9.60;99.90;;;;;;5024801;28;20029;-70
2023/03/25 09:56:47;;;;;;;2.45;0.80;;;9.60;99.90;;;;;;5023932;28;20033;-70
2023/03/25 09:59:33;;;;;;;1.67;0.68;;;9.60;99.90;;;;;;5019208;28;20034;-70
2023/03/25 10:02:25;;;;;;;3.25;0.68;;;9.60;99.90;;;;;;5020869;28;20037;-70
2023/03/25 10:05:18;;;;;;;4.43;0.52;;;9.50;99.90;;;;;;5015522;28;20030;-70
2023/03/25 10:08:01;;;;;;;1.85;0.80;;;;;;;;;;5006757;28;20034;-70
2023/03/25 10:10:36;;;;;;;3.67;0.52;;;;;;;;;;5015896;28;20124;-70
2023/03/25 10:13:05;;;;;;;4.35;1.13;;;;;;;;;;5009604;28;20087;-70
2023/03/25 10:15:40;;;;;;;3.00;0.60;;;;;;;;;;5024469;28;20030;-70
2023/03/25 10:18:15;;;;;;;0.68;0.45;;;;;;;;;;5027239;28;20036;-70
2023/03/25 10:20:59;;;;;;;2.38;1.30;;;;;;;;;;5028431;28;20395;-70
2023/03/25 10:23:24;;;;;;;;;;;;;;;;;;5026952;28;20038;-70
2023/03/25 10:25:59;;;;;;;1.45;0.30;;;;;;;;;;5026177;28;19919;-69
2023/03/25 10:28:35;;;;;;;1.92;0.43;;;;;;;;;;5024726;28;20025;-69
2023/03/25 10:31:08;;;;;;;1.45;0.50;;;;;;;;;;5019946;28;20034;-70
2023/03/25 10:33:40;;;;;;;0.10;0.10;;;;;;;;;;5014365;28;20034;-70
2023/03/25 10:36:21;;;;;;;0.83;0.33;;;;;;;;;;5032233;28;20026;-70
2023/03/25 10:38:56;;;;;;;0.40;0.20;;;;;;;;;;5031885;28;20038;-70
2023/03/25 10:41:38;;;;;;;2.42;1.05;;;;;;;;;;5028214;28;20064;-70
2023/03/25 10:44:13;;;;;;;2.47;0.68;;;;;;;;;;5014536;28;20106;-70
2023/03/25 10:46:56;;;;;;;4.15;0.77;;;;;;;;;;5026538;28;20034;-70
2023/03/25 10:49:30;;;;;;;2.35;0.47;;;;;;;;;;5021905;28;20049;-70
2023/03/25 10:52:02;;;;;;;1.85;0.82;;;;;;;;;;5031212;28;20129;-70
2023/03/25 10:54:39;;;;;;;3.97;1.00;;;;;;;;;;5028179;28;20352;-70
2023/03/25 10:57:12;;;;;;;1.52;0.82;;;;;;;;;;5018550;28;20152;-70
2023/03/25 10:59:50;;;;;;;2.15;0.70;;;;;;;;;;5031473;28;20045;-70
2023/03/25 11:02:21;;;;;;;2.22;1.00;;;;;;;;;;5030016;28;20048;-70
2023/03/25 11:04:50;;;;;;;2.40;1.00;;;;;;;;;;5023881;28;20319;-70
2023/03/25 11:07:23;;;;;;;2.63;0.80;;;;;;;;;;5028627;28;20398;-70
2023/03/25 11:09:55;;;;;;;2.85;1.20;;;;;;;;;;5027240;28;20505;-70
2023/03/25 11:12:22;;;;;;;3.17;1.00;;;;;;;;;;5031485;28;20537;-70
2023/03/25 11:15:02;;;;;;;4.28;0.73;;;;;;;;;;5025963;28;20038;-70
2023/03/25 11:17:29;;;;;;;2.00;0.77;;;;;;;;;;5027860;28;20037;-70
2023/03/25 11:20:05;;;;;;;5.18;1.30;;;;;;;;;;5024902;28;20033;-70
2023/03/25 11:22:38;;;;;;;1.75;0.80;;;;;;;;;;5031299;28;20733;-70
2023/03/25 11:25:16;;;;;;;3.88;1.75;;;;;;;;;;5028249;28;20049;-70
2023/03/25 11:27:53;;;;;;;2.67;1.50;;;;;;;;;;5022262;28;20541;-70
2023/03/25 11:30:26;;;;;;;3.58;1.20;;;;;;;;;;5031267;28;20037;-70
2023/03/25 11:33:08;;;;;;;6.63;1.60;;;;;;;;;;5027172;28;20033;-70
2023/03/25 11:35:47;;;;;;;3.70;0.80;;;;;;;;;;5029140;28;20379;-70
2023/03/25 11:38:23;;;;;;;4.50;1.40;;;;;;;;;;5031417;28;20045;-69
2023/03/25 11:41:01;;;;;;;4.50;1.25;;;;;;;;;;5031210;28;20033;-69
2023/03/25 11:43:35;;;;;;;4.28;1.00;;;;;;;;;;5029249;28;20489;-69
2023/03/25 11:46:15;;;;;;;2.70;0.95;;;;;;;;;;5025807;28;20033;-69
2023/03/25 11:48:45;;;;;;;6.53;1.48;;;;;;;;;;5029073;28;20063;-70
2023/03/25 11:51:27;;;;;;;5.85;1.25;;;;;;;;;;5029506;28;20402;-69
2023/03/25 11:54:00;;;;;;;4.90;0.60;;;;;;;;;;5030339;28;20041;-69
2023/03/25 11:56:37;;;;;;;4.18;0.90;;;;;;;;;;5030010;28;20033;-70
2023/03/25 11:59:20;;;;;;;5.30;0.90;;;;;;;;;;5031087;28;20059;-69
2023/03/25 12:01:51;;;;;;;5.78;0.80;;;;;;;;;;5027485;28;20481;-69
2023/03/25 12:04:22;;;;;;;3.35;0.90;;;;;;;;;;5026967;28;20041;-70
2023/03/25 12:06:53;;;;;;;3.17;0.90;;;;;;;;;;5038001;28;20055;-70
2023/03/25 12:09:26;;;;;;;4.63;1.13;;;;;;;;;;5025404;28;20389;-70
2023/03/25 12:12:15;;;;;;;6.28;1.38;;;;;;;;;;5031217;28;20075;-70
2023/03/25 12:14:57;;;;;;;6.20;1.30;;;;;;;;;;5028463;28;20025;-70
2023/03/25 12:17:31;;;;;;;4.22;1.15;;;;;;;;;;5030026;28;20124;-70
2023/03/25 12:20:21;;;;;;;4.90;1.35;;;;;;;;;;5028508;28;20064;-69
2023/03/25 12:23:00;;;;;;;5.18;0.80;;;;;;;;;;5008076;28;20041;-70
2023/03/25 12:25:48;;;;;;;8.27;1.17;;;;;;;;;;5013197;28;20041;-70
2023/03/25 12:28:35;;;;;;;6.15;1.17;;;;;;;;;;5025266;28;20025;-70
2023/03/25 12:31:10;;;;;;;5.88;0.93;;;;;;;;;;5010462;28;20478;-70
2023/03/25 12:33:51;;;;;;;7.35;1.20;;;;;;;;;;5015701;28;20040;-70
2023/03/25 12:36:34;;;;;;;9.05;1.20;;;;;;;;;;5023939;28;20116;-70
2023/03/25 12:39:15;;;;;;;4.88;1.05;;;;;;;;;;5024267;28;20050;-69
2023/03/25 12:41:58;;;;;;;5.75;1.25;;;;;;;;;;5030292;28;20029;-70
2023/03/25 12:44:39;;;;;;;4.95;1.20;;;;;;;;;;5030426;28;20449;-69
2023/03/25 12:47:15;;;;;;;3.20;1.40;;;;;;;;;;5024920;28;20122;-69
2023/03/25 12:49:49;;;;;;;3.25;1.10;;;;;;;;;;5029563;28;20437;-69
2023/03/25 12:52:23;;;;;;;4.90;1.63;;;;;;;;;;5017520;28;20030;-69
2023/03/25 12:55:05;;;;;;;2.63;1.13;;;;;;;;;;5023937;28;20498;-69
2023/03/25 12:57:40;;;;;;;3.30;1.65;;;;;;;;;;5025947;28;20026;-69
2023/03/25 13:00:20;;;;;;;4.28;1.15;;;;;;;;;;5029825;28;20061;-69
2023/03/25 13:02:56;;;;;;;3.05;0.95;;;;;;;;;;5027134;28;20029;-69
2023/03/25 13:05:37;;;;;;;2.45;0.88;;;;;;;;;;5029795;28;20029;-69
2023/03/25 13:08:06;;;;;;;4.00;0.80;;;;;;;;;;5017343;28;20663;-69
2023/03/25 13:10:39;;;;;;;2.47;0.40;;;;;;;;;;5025625;28;20037;-69
2023/03/25 13:13:10;;;;;;;4.05;0.90;;;;;;;;;;5017955;28;20033;-69
2023/03/25 13:15:48;;;;;;;3.42;0.50;;;;;;;;;;5027593;28;20037;-69
2023/03/25 13:18:24;;;;;;;1.10;0.50;;;;;;;;;;5026105;28;20053;-69
2023/03/25 13:21:03;;;;;;;3.97;0.60;;;;;;;;;;5028132;28;20041;-70
2023/03/25 13:23:35;;;;;;;3.35;0.57;;;;;;;;;;5013450;28;20136;-69
2023/03/25 13:26:10;;;;;;;4.03;0.50;;;;;;;;;;5027372;28;20437;-70
2023/03/25 13:28:47;;;;;;;3.15;0.93;;;;;;;;;;5023680;28;20402;-70
2023/03/25 13:31:19;;;;;;;1.88;0.57;;;;;;;;;;5025022;28;20041;-70
2023/03/25 13:34:13;;;;;;;2.20;0.57;;;13.20;99.90;;;;;;5028333;28;20363;-70
2023/03/25 13:36:44;;;;;;;;;;;13.10;99.90;;;;;;5010405;28;20092;-70
2023/03/25 13:39:25;;;;;;;1.15;0.50;;;13.30;99.90;;;;;;5023045;28;19913;-69
2023/03/25 13:42:11;;;;;;;2.42;0.93;;;13.20;99.90;;;;;;5027941;28;20048;-70
2023/03/25 13:45:00;;;;;;;4.43;0.60;;;13.00;99.90;;;;;;5029025;28;20536;-69
2023/03/25 13:47:55;;;;;;;2.25;0.70;;;13.40;99.90;;;;;;5027042;28;20064;-69
2023/03/25 13:50:30;;;;;;;2.67;0.60;;;13.00;99.90;;;;;;5024782;28;20513;-69
2023/03/25 13:53:30;;;;;;;3.67;0.52;;;13.10;99.90;;;;;;5022289;28;20042;-70
2023/03/25 13:56:08;;;;;;;2.97;0.40;;;;;;;;;;5015135;28;20120;-69
2023/03/25 13:59:09;;;;;;;3.50;0.55;;;12.90;99.90;;;;;;5027831;28;20458;-70
2023/03/25 14:01:44;;;;;;;2.28;0.60;;;;;;;;;;5023446;28;20553;-69
2023/03/25 14:04:23;;;;;;;2.65;0.57;;;12.40;99.90;;;;;;5027474;28;20040;-69
2023/03/25 14:07:10;;;;;;;1.83;0.60;;;;;;;;;;5024587;28;20057;-69
2023/03/25 14:09:54;;;;;;;2.13;0.80;;;12.10;99.90;;;;;;5015343;28;20037;-70